Terminal Aerodrome Forecast
Issued by NWS

Current Version | Previous Version | Text Only | Print | Product List | Glossary On
Versions: 1 2 3 4 5 6 7 8 9 10 11 12 13 14 15 16 17 18 19 20 21
000
FTUS43 KDVN 281200 AAA
TAFCID
TAF AMD
KCID 281258Z 2813/2912 15011G17KT P6SM BKN150
     FM282300 15008KT P6SM BKN150
     FM290500 17007KT P6SM BKN150=

USA.gov is the U.S. government's official web portal to all federal, state and local government web resources and services.